createdAt,value
2018-12-23T00:00:19.805Z,0
2018-12-23T00:01:29.983Z,0
2018-12-23T00:02:40.167Z,0
2018-12-23T00:03:50.385Z,0
2018-12-23T00:05:01.170Z,0
2018-12-23T00:06:18.861Z,0
2018-12-23T00:07:28.914Z,0
2018-12-23T00:08:38.999Z,0
2018-12-23T00:09:49.055Z,0
2018-12-23T00:10:58.876Z,0
2018-12-23T00:12:08.967Z,0
2018-12-23T00:13:18.823Z,0
2018-12-23T00:14:28.970Z,0
2018-12-23T00:15:39.138Z,0
2018-12-23T00:16:49.270Z,0
2018-12-23T00:17:59.525Z,0
2018-12-23T00:19:09.964Z,0
2018-12-23T00:20:20.081Z,0
2018-12-23T00:21:29.952Z,0
2018-12-23T00:22:40.054Z,0
2018-12-23T00:23:49.882Z,0
2018-12-23T00:24:59.974Z,0
2018-12-23T00:26:09.819Z,0
2018-12-23T00:27:19.950Z,0
2018-12-23T00:28:29.872Z,0
2018-12-23T00:29:39.931Z,0
2018-12-23T00:30:50.003Z,0
2018-12-23T00:32:00.068Z,0
2018-12-23T00:33:10.153Z,0
2018-12-23T00:34:19.968Z,0
2018-12-23T00:35:30.053Z,0
2018-12-23T00:36:40.124Z,0
2018-12-23T00:37:50.221Z,0
2018-12-23T00:39:03.293Z,0
2018-12-23T00:40:13.108Z,0
2018-12-23T00:41:23.188Z,0
2018-12-23T00:42:33.271Z,0
2018-12-23T00:43:43.334Z,0
2018-12-23T00:44:53.449Z,0
2018-12-23T00:46:03.757Z,0
2018-12-23T00:47:13.802Z,0
2018-12-23T00:48:23.866Z,0
2018-12-23T00:49:33.680Z,0
2018-12-23T00:50:43.848Z,0
2018-12-23T00:51:53.900Z,0
2018-12-23T00:53:04.090Z,0
2018-12-23T00:54:13.892Z,0
2018-12-23T00:55:24.077Z,0
2018-12-23T00:56:34.188Z,0
2018-12-23T00:57:44.266Z,0
2018-12-23T00:58:54.339Z,0
2018-12-23T01:00:04.387Z,0
2018-12-23T01:01:14.680Z,0
2018-12-23T01:02:24.735Z,0
2018-12-23T01:03:34.286Z,0
2018-12-23T01:04:44.357Z,0
2018-12-23T01:05:54.429Z,0
2018-12-23T01:07:04.035Z,0
2018-12-23T01:08:13.859Z,0
2018-12-23T01:09:23.927Z,0
2018-12-23T01:10:33.987Z,0
2018-12-23T01:11:44.052Z,0
2018-12-23T01:12:54.123Z,0
2018-12-23T01:14:04.260Z,0
2018-12-23T01:15:14.315Z,0
2018-12-23T01:16:24.381Z,0
2018-12-23T01:17:34.446Z,0
2018-12-23T01:18:44.533Z,0
2018-12-23T01:19:54.358Z,0
2018-12-23T01:21:04.397Z,0
2018-12-23T01:22:14.271Z,0
2018-12-23T01:23:24.442Z,0
2018-12-23T01:24:34.522Z,0
2018-12-23T01:25:44.636Z,0
2018-12-23T01:26:54.731Z,0
2018-12-23T01:28:04.802Z,0
2018-12-23T01:29:14.860Z,0
2018-12-23T01:30:24.685Z,0
2018-12-23T01:31:34.737Z,0
2018-12-23T01:32:44.800Z,0
2018-12-23T01:33:54.877Z,0
2018-12-23T01:35:05.109Z,0
2018-12-23T01:36:15.230Z,0
2018-12-23T01:37:25.292Z,0
2018-12-23T01:38:35.379Z,0
2018-12-23T01:39:45.195Z,0
2018-12-23T01:40:54.981Z,0
2018-12-23T01:42:04.788Z,0
2018-12-23T01:43:14.852Z,0
2018-12-23T01:44:24.971Z,0
2018-12-23T01:45:35.035Z,0
2018-12-23T01:46:45.100Z,0
2018-12-23T01:47:54.946Z,0
2018-12-23T01:49:08.301Z,0
2018-12-23T01:50:18.118Z,0
2018-12-23T01:51:28.178Z,0
2018-12-23T01:52:38.243Z,0
2018-12-23T01:53:48.322Z,0
2018-12-23T01:54:57.868Z,0
2018-12-23T01:56:08.058Z,0
2018-12-23T01:57:18.360Z,0
2018-12-23T01:58:28.432Z,0
2018-12-23T01:59:38.505Z,0
2018-12-23T02:00:48.814Z,0
2018-12-23T02:01:58.886Z,0
2018-12-23T02:03:09.054Z,0
2018-12-23T02:04:18.850Z,0
2018-12-23T02:05:29.165Z,0
2018-12-23T02:06:39.384Z,0
2018-12-23T02:07:49.481Z,0
2018-12-23T02:08:59.568Z,0
2018-12-23T02:10:09.738Z,0
2018-12-23T02:11:19.537Z,0
2018-12-23T02:12:29.377Z,0
2018-12-23T02:13:39.500Z,0
2018-12-23T02:14:49.640Z,0
2018-12-23T02:15:59.560Z,0
2018-12-23T02:17:10.438Z,0
2018-12-23T02:18:20.491Z,0
2018-12-23T02:19:30.292Z,0
2018-12-23T02:20:40.379Z,0
2018-12-23T02:21:50.439Z,0
2018-12-23T02:23:01.318Z,0
2018-12-23T02:24:11.525Z,0
2018-12-23T02:25:21.570Z,0
2018-12-23T02:26:31.619Z,0
2018-12-23T02:27:41.689Z,0
2018-12-23T02:28:51.764Z,0
2018-12-23T02:30:01.621Z,0
2018-12-23T02:31:11.712Z,0
2018-12-23T02:32:21.931Z,0
2018-12-23T02:33:32.014Z,0
2018-12-23T02:34:42.073Z,0
2018-12-23T02:36:01.336Z,0
2018-12-23T02:37:11.397Z,0
2018-12-23T02:38:21.458Z,0
2018-12-23T02:39:31.559Z,0
2018-12-23T02:40:41.378Z,0
2018-12-23T02:41:51.703Z,0
2018-12-23T02:43:01.753Z,0
2018-12-23T02:44:11.815Z,0
2018-12-23T02:45:21.961Z,0
2018-12-23T02:46:32.018Z,0
2018-12-23T02:47:42.088Z,0
2018-12-23T02:48:51.902Z,0
2018-12-23T02:50:02.596Z,0
2018-12-23T02:51:12.677Z,0
2018-12-23T02:52:22.497Z,0
2018-12-23T02:53:32.806Z,0
2018-12-23T02:54:42.898Z,0
2018-12-23T02:55:52.951Z,0
2018-12-23T02:57:03.020Z,0
2018-12-23T02:58:13.137Z,0
2018-12-23T02:59:22.937Z,0
2018-12-23T03:00:32.977Z,0
2018-12-23T03:01:43.058Z,0
2018-12-23T03:02:53.134Z,0
2018-12-23T03:35:00.437Z,0
2018-12-23T03:36:19.706Z,0
2018-12-23T03:37:29.653Z,0
2018-12-23T03:38:39.719Z,0
2018-12-23T03:39:49.793Z,0
2018-12-23T03:40:59.962Z,0
2018-12-23T03:42:10.032Z,0
2018-12-23T03:43:20.091Z,0
2018-12-23T03:44:30.165Z,0
2018-12-23T03:45:40.306Z,0
2018-12-23T03:46:50.401Z,0
2018-12-23T03:47:59.975Z,0
2018-12-23T03:49:10.479Z,0
2018-12-23T03:50:20.506Z,0
2018-12-23T03:51:30.401Z,0
2018-12-23T03:52:40.197Z,0
2018-12-23T03:53:50.251Z,0
2018-12-23T03:55:01.426Z,0
2018-12-23T03:56:11.487Z,0
2018-12-23T03:57:21.043Z,0
2018-12-23T03:58:30.601Z,0
2018-12-23T03:59:40.197Z,0
2018-12-23T04:00:49.991Z,0
2018-12-23T04:02:00.068Z,0
2018-12-23T04:03:10.173Z,0
2018-12-23T04:04:19.995Z,0
2018-12-23T04:05:30.063Z,0
2018-12-23T04:06:40.131Z,0
2018-12-23T04:07:50.227Z,0
2018-12-23T04:09:02.672Z,0
2018-12-23T04:10:12.716Z,0
2018-12-23T04:11:22.768Z,0
2018-12-23T04:12:32.843Z,0
2018-12-23T04:13:42.924Z,0
2018-12-23T04:14:52.961Z,0
2018-12-23T04:16:04.029Z,0
2018-12-23T04:17:13.842Z,0
2018-12-23T04:18:23.637Z,0
2018-12-23T04:19:33.700Z,0
2018-12-23T04:20:43.829Z,0
2018-12-23T04:21:53.890Z,0
2018-12-23T04:23:04.809Z,0
2018-12-23T04:24:15.031Z,0
2018-12-23T04:25:25.101Z,0
2018-12-23T04:26:35.425Z,0
2018-12-23T04:27:45.281Z,0
2018-12-23T04:28:55.077Z,0
2018-12-23T04:30:05.471Z,0
2018-12-23T04:31:15.547Z,0
2018-12-23T04:32:25.613Z,0
2018-12-23T04:33:35.735Z,0
2018-12-23T04:34:45.817Z,0
2018-12-23T04:35:55.642Z,0
2018-12-23T04:37:07.010Z,0
2018-12-23T04:38:17.188Z,0
2018-12-23T04:39:27.246Z,0
2018-12-23T04:40:37.419Z,0
2018-12-23T04:41:47.261Z,0
2018-12-23T04:42:57.319Z,0
2018-12-23T04:44:07.616Z,0
2018-12-23T04:45:17.672Z,0
2018-12-23T04:46:27.856Z,0
2018-12-23T04:47:37.935Z,0
2018-12-23T04:48:47.737Z,0
2018-12-23T04:49:57.795Z,0
2018-12-23T04:51:08.828Z,0
2018-12-23T04:52:18.916Z,0
2018-12-23T04:53:28.990Z,0
2018-12-23T04:54:39.108Z,0
2018-12-23T04:55:49.426Z,0
2018-12-23T04:56:59.608Z,0
2018-12-23T04:58:09.854Z,0
2018-12-23T04:59:19.919Z,0
2018-12-23T05:00:29.980Z,0
2018-12-23T05:01:39.792Z,0
2018-12-23T05:02:49.636Z,0
2018-12-23T05:03:59.690Z,0
2018-12-23T05:05:09.502Z,0
2018-12-23T05:06:20.445Z,0
2018-12-23T05:07:30.516Z,0
2018-12-23T05:08:40.581Z,0
2018-12-23T05:09:50.858Z,0
2018-12-23T05:11:00.718Z,0
2018-12-23T05:12:10.519Z,0
2018-12-23T05:13:20.639Z,0
2018-12-23T05:14:30.759Z,0
2018-12-23T05:15:40.817Z,0
2018-12-23T05:16:50.384Z,0
2018-12-23T05:18:03.107Z,0
2018-12-23T05:19:13.192Z,0
2018-12-23T05:20:23.258Z,0
2018-12-23T05:21:33.310Z,0
2018-12-23T05:22:43.503Z,0
2018-12-23T05:23:53.315Z,0
2018-12-23T05:25:03.625Z,0
2018-12-23T05:26:13.684Z,0
2018-12-23T05:27:23.743Z,0
2018-12-23T05:28:33.832Z,0
2018-12-23T05:29:43.808Z,0
2018-12-23T05:30:54.023Z,0
2018-12-23T05:32:06.094Z,0
2018-12-23T05:33:16.008Z,0
2018-12-23T05:34:26.078Z,0
2018-12-23T05:35:36.150Z,0
2018-12-23T05:36:54.738Z,0
2018-12-23T05:38:04.802Z,0
2018-12-23T05:39:14.978Z,0
2018-12-23T05:40:25.031Z,0
2018-12-23T05:41:35.102Z,0
2018-12-23T05:42:45.164Z,0
2018-12-23T05:43:54.714Z,0
2018-12-23T05:45:04.794Z,0
2018-12-23T05:46:14.872Z,0
2018-12-23T05:47:25.040Z,0
2018-12-23T05:48:34.336Z,0
2018-12-23T05:49:44.399Z,0
2018-12-23T05:50:54.699Z,0
2018-12-23T05:52:04.253Z,0
2018-12-23T05:53:14.511Z,0
2018-12-23T05:54:24.591Z,0
2018-12-23T05:55:34.659Z,0
2018-12-23T05:56:44.733Z,0
2018-12-23T05:57:54.557Z,0
2018-12-23T05:59:04.938Z,0
2018-12-23T06:00:15.547Z,0
2018-12-23T06:01:25.364Z,0
2018-12-23T06:02:35.167Z,0
2018-12-23T06:03:44.714Z,0
2018-12-23T06:04:54.755Z,0
2018-12-23T06:06:04.573Z,0
2018-12-23T06:07:14.634Z,0
2018-12-23T06:08:24.717Z,0
2018-12-23T06:09:34.517Z,0
2018-12-23T06:10:44.576Z,0
2018-12-23T06:11:55.024Z,4
2018-12-23T06:13:05.248Z,4
2018-12-23T06:14:15.061Z,0
2018-12-23T06:15:25.126Z,4
2018-12-23T06:16:35.207Z,4
2018-12-23T06:17:45.260Z,4
2018-12-23T06:18:55.102Z,4
2018-12-23T06:20:05.176Z,4
2018-12-23T06:21:14.966Z,8
2018-12-23T06:22:25.025Z,8
2018-12-23T06:23:35.087Z,12
2018-12-23T06:24:44.891Z,12
2018-12-23T06:25:55.202Z,12
2018-12-23T06:27:06.149Z,16
2018-12-23T06:28:16.266Z,16
2018-12-23T06:29:26.074Z,20
2018-12-23T06:30:36.148Z,28
2018-12-23T06:31:46.211Z,28
2018-12-23T06:32:56.260Z,32
2018-12-23T06:34:05.809Z,36
2018-12-23T06:35:15.872Z,44
2018-12-23T06:36:25.942Z,52
2018-12-23T06:37:35.999Z,68
2018-12-23T06:38:46.069Z,80
2018-12-23T06:39:56.187Z,88
2018-12-23T06:41:06.226Z,100
2018-12-23T06:42:16.526Z,112
2018-12-23T06:43:26.581Z,124
2018-12-23T06:44:36.379Z,132
2018-12-23T06:45:46.485Z,148
2018-12-23T06:46:56.563Z,160
2018-12-23T06:48:06.618Z,176
2018-12-23T06:49:17.026Z,192
2018-12-23T06:50:26.832Z,208
2018-12-23T06:51:37.958Z,232
2018-12-23T06:52:47.771Z,252
2018-12-23T06:53:57.596Z,284
2018-12-23T06:55:08.289Z,312
2018-12-23T06:56:18.417Z,344
2018-12-23T06:57:28.532Z,380
2018-12-23T06:58:38.603Z,412
2018-12-23T06:59:48.660Z,444
2018-12-23T07:00:58.747Z,476
2018-12-23T07:02:08.819Z,504
2018-12-23T07:03:18.709Z,532
2018-12-23T07:04:28.790Z,556
2018-12-23T07:05:39.097Z,580
2018-12-23T07:06:49.222Z,596
2018-12-23T07:07:58.768Z,612
2018-12-23T07:09:10.625Z,636
2018-12-23T07:10:20.438Z,664
2018-12-23T07:11:30.628Z,688
2018-12-23T07:12:40.447Z,700
2018-12-23T07:13:50.516Z,728
2018-12-23T07:15:03.257Z,756
2018-12-23T07:16:13.074Z,764
2018-12-23T07:17:23.145Z,772
2018-12-23T07:18:33.218Z,756
2018-12-23T07:19:43.292Z,792
2018-12-23T07:20:55.251Z,776
2018-12-23T07:22:05.425Z,780
2018-12-23T07:23:15.218Z,844
2018-12-23T07:24:25.304Z,924
2018-12-23T07:25:35.116Z,940
2018-12-23T07:26:46.180Z,932
2018-12-23T07:27:56.258Z,972
2018-12-23T07:29:06.320Z,1048
2018-12-23T07:30:16.119Z,992
2018-12-23T07:31:26.187Z,956
2018-12-23T07:32:36.330Z,988
2018-12-23T07:33:46.405Z,1028
2018-12-23T07:34:56.468Z,1060
2018-12-23T07:36:06.530Z,1128
2018-12-23T07:37:16.603Z,1200
2018-12-23T07:38:35.203Z,1236
2018-12-23T07:39:45.275Z,1308
2018-12-23T07:40:55.140Z,1424
2018-12-23T07:42:07.106Z,1444
2018-12-23T07:43:16.661Z,1500
2018-12-23T07:44:26.806Z,1604
2018-12-23T07:45:36.871Z,1748
2018-12-23T07:46:46.944Z,1780
2018-12-23T07:47:56.756Z,1756
2018-12-23T07:49:08.486Z,1700
2018-12-23T07:50:18.599Z,1792
2018-12-23T07:51:28.156Z,1856
2018-12-23T07:52:38.238Z,1904
2018-12-23T07:53:48.314Z,1932
2018-12-23T07:54:58.217Z,1996
2018-12-23T07:56:08.276Z,1972
2018-12-23T07:57:18.341Z,2124
2018-12-23T07:58:28.398Z,2008
2018-12-23T07:59:38.204Z,2080
2018-12-23T08:00:48.271Z,2248
2018-12-23T08:01:59.502Z,2336
2018-12-23T08:03:09.632Z,2376
2018-12-23T08:04:19.694Z,2132
2018-12-23T08:05:29.764Z,1804
2018-12-23T08:06:39.884Z,1908
2018-12-23T08:07:50.050Z,2192
2018-12-23T08:09:00.132Z,2432
2018-12-23T08:10:11.047Z,2276
2018-12-23T08:11:21.127Z,2304
2018-12-23T08:12:31.197Z,2264
2018-12-23T08:13:41.348Z,2180
2018-12-23T08:14:51.546Z,2184
2018-12-23T08:16:01.618Z,2244
2018-12-23T08:17:11.690Z,2064
2018-12-23T08:18:22.134Z,2024
2018-12-23T08:19:32.264Z,2024
2018-12-23T08:20:42.346Z,2176
2018-12-23T08:21:52.474Z,2104
2018-12-23T08:23:05.241Z,2220
2018-12-23T08:24:15.356Z,2400
2018-12-23T08:25:25.535Z,2504
2018-12-23T08:26:43.281Z,2524
2018-12-23T08:27:53.090Z,2664
2018-12-23T08:29:04.975Z,2872
2018-12-23T08:30:15.088Z,2868
2018-12-23T08:31:25.137Z,2896
2018-12-23T08:32:34.935Z,2936
2018-12-23T08:33:45.023Z,2792
2018-12-23T08:34:55.083Z,2744
2018-12-23T08:36:05.797Z,2924
2018-12-23T08:37:15.910Z,2924
2018-12-23T08:38:25.732Z,2804
2018-12-23T08:39:35.580Z,2816
2018-12-23T08:40:45.924Z,2756
2018-12-23T08:41:56.303Z,2912
2018-12-23T08:43:06.381Z,2440
2018-12-23T08:44:16.504Z,2692
2018-12-23T08:45:26.821Z,2596
2018-12-23T08:46:43.926Z,2488
2018-12-23T08:47:54.077Z,2804
2018-12-23T08:49:04.171Z,2636
2018-12-23T08:50:14.303Z,2900
2018-12-23T08:51:24.370Z,2724
2018-12-23T08:52:34.465Z,2644
2018-12-23T08:53:44.289Z,2688
2018-12-23T08:54:54.382Z,2880
2018-12-23T08:56:04.466Z,2816
2018-12-23T08:57:14.390Z,2852
2018-12-23T08:58:24.522Z,3144
2018-12-23T08:59:34.592Z,3160
2018-12-23T09:00:44.511Z,3236
2018-12-23T09:01:54.589Z,2904
2018-12-23T09:03:06.130Z,3188
2018-12-23T09:04:16.347Z,3332
2018-12-23T09:05:26.655Z,3340
2018-12-23T09:06:36.794Z,3496
2018-12-23T09:07:55.339Z,3632
2018-12-23T09:09:08.028Z,3076
2018-12-23T09:10:18.138Z,2800
2018-12-23T09:11:28.213Z,2820
2018-12-23T09:12:38.274Z,2912
2018-12-23T09:13:47.877Z,2856
2018-12-23T09:14:57.694Z,3056
2018-12-23T09:16:08.651Z,3516
2018-12-23T09:17:18.728Z,3240
2018-12-23T09:18:28.538Z,3408
2018-12-23T09:19:38.379Z,3320
2018-12-23T09:20:48.229Z,3508
2018-12-23T09:21:58.346Z,3660
2018-12-23T09:23:08.425Z,3904
2018-12-23T09:24:18.272Z,4016
2018-12-23T09:25:28.407Z,3744
2018-12-23T09:26:38.495Z,3892
2018-12-23T09:27:48.622Z,3752
2018-12-23T09:28:58.743Z,3728
2018-12-23T09:30:08.872Z,3596
2018-12-23T09:31:18.962Z,3512
2018-12-23T09:32:29.073Z,3520
2018-12-23T09:33:39.133Z,3468
2018-12-23T09:34:49.216Z,3456
2018-12-23T09:35:59.445Z,3428
2018-12-23T09:37:10.772Z,3408
2018-12-23T09:38:20.886Z,3324
2018-12-23T09:39:30.958Z,3344
2018-12-23T09:40:41.052Z,3440
2018-12-23T09:41:51.126Z,3372
2018-12-23T09:43:01.348Z,3416
2018-12-23T09:44:11.428Z,3584
2018-12-23T09:45:21.300Z,3676
2018-12-23T09:46:31.474Z,3880
2018-12-23T09:47:41.532Z,3824
2018-12-23T09:48:52.687Z,3740
2018-12-23T09:50:05.427Z,3808
2018-12-23T09:51:15.510Z,3756
2018-12-23T09:52:25.620Z,3696
2018-12-23T09:53:35.680Z,3644
2018-12-23T09:54:45.524Z,3848
2018-12-23T09:55:55.619Z,3552
2018-12-23T09:57:05.696Z,3508
2018-12-23T09:58:15.802Z,3592
2018-12-23T09:59:25.858Z,3484
2018-12-23T10:00:35.441Z,3252
2018-12-23T10:01:45.612Z,3232
2018-12-23T10:02:55.730Z,3236
2018-12-23T10:04:06.079Z,3196
2018-12-23T10:05:16.197Z,3200
2018-12-23T10:06:26.074Z,3304
2018-12-23T10:07:37.005Z,3264
2018-12-23T10:08:47.353Z,3516
2018-12-23T10:09:57.430Z,3512
2018-12-23T10:11:07.747Z,3440
2018-12-23T10:12:17.812Z,3480
2018-12-23T10:13:27.955Z,3540
2018-12-23T10:14:38.094Z,3320
2018-12-23T10:15:48.213Z,3288
2018-12-23T10:16:58.315Z,3040
2018-12-23T10:18:08.553Z,3232
2018-12-23T10:19:18.635Z,3128
2018-12-23T10:20:28.780Z,2936
2018-12-23T10:21:38.610Z,3316
2018-12-23T10:22:48.739Z,3076
2018-12-23T10:23:58.599Z,2928
2018-12-23T10:25:09.100Z,2968
2018-12-23T10:26:19.420Z,2916
2018-12-23T10:27:29.497Z,2968
2018-12-23T10:28:39.587Z,2816
2018-12-23T10:29:49.666Z,2812
2018-12-23T10:30:59.721Z,2884
2018-12-23T10:32:09.614Z,2736
2018-12-23T10:33:19.187Z,2888
2018-12-23T10:34:29.271Z,3356
2018-12-23T10:35:40.994Z,3568
2018-12-23T10:36:51.162Z,3448
2018-12-23T10:38:01.150Z,3228
2018-12-23T10:39:11.193Z,3508
2018-12-23T10:40:21.253Z,3184
2018-12-23T10:41:31.314Z,3448
2018-12-23T10:42:41.401Z,3720
2018-12-23T10:43:51.482Z,3496
2018-12-23T10:45:01.581Z,3460
2018-12-23T10:46:11.661Z,3724
2018-12-23T10:47:21.748Z,3652
2018-12-23T10:48:32.885Z,3412
2018-12-23T10:49:42.960Z,3300
2018-12-23T10:50:53.152Z,3180
2018-12-23T10:52:03.640Z,2936
2018-12-23T10:53:13.769Z,2996
2018-12-23T10:54:23.871Z,3352
2018-12-23T10:55:34.024Z,3416
2018-12-23T10:56:44.129Z,3392
2018-12-23T10:57:53.975Z,3948
2018-12-23T10:59:04.894Z,3968
2018-12-23T11:00:16.610Z,3924
2018-12-23T11:01:26.778Z,3536
2018-12-23T11:02:36.595Z,3120
2018-12-23T11:03:46.678Z,2976
2018-12-23T11:04:56.532Z,3168
2018-12-23T11:06:08.172Z,3416
2018-12-23T11:07:18.242Z,3048
2018-12-23T11:08:34.306Z,3084
2018-12-23T11:09:44.415Z,3288
2018-12-23T11:10:54.440Z,3176
2018-12-23T11:12:04.551Z,3160
2018-12-23T11:13:14.646Z,3112
2018-12-23T11:14:24.539Z,3256
2018-12-23T11:15:34.624Z,3292
2018-12-23T11:16:44.745Z,3148
2018-12-23T11:17:54.829Z,3224
2018-12-23T11:19:04.931Z,3572
2018-12-23T11:20:14.778Z,3260
2018-12-23T11:21:24.847Z,3488
2018-12-23T11:22:34.988Z,3636
2018-12-23T11:23:45.078Z,3640
2018-12-23T11:24:55.222Z,3924
2018-12-23T11:26:05.325Z,4156
2018-12-23T11:27:15.434Z,3552
2018-12-23T11:28:25.252Z,3244
2018-12-23T11:29:35.520Z,3424
2018-12-23T11:30:45.629Z,3612
2018-12-23T11:31:55.432Z,3748
2018-12-23T11:33:07.826Z,3144
2018-12-23T11:34:17.905Z,3212
2018-12-23T11:35:27.765Z,3416
2018-12-23T11:36:37.677Z,3284
2018-12-23T11:37:47.955Z,3296
2018-12-23T11:38:58.010Z,3500
2018-12-23T11:40:09.421Z,3220
2018-12-23T11:41:19.267Z,3232
2018-12-23T11:42:29.372Z,3380
2018-12-23T11:43:39.457Z,3388
2018-12-23T11:44:49.557Z,3428
2018-12-23T11:45:59.645Z,3392
2018-12-23T11:47:10.599Z,3128
2018-12-23T11:48:20.792Z,3160
2018-12-23T11:49:31.406Z,2912
2018-12-23T11:50:41.725Z,2820
2018-12-23T11:51:51.811Z,2872
2018-12-23T11:53:01.913Z,2764
2018-12-23T11:54:12.049Z,2716
2018-12-23T11:55:21.873Z,2896
2018-12-23T11:56:31.947Z,2824
2018-12-23T11:57:41.804Z,2764
2018-12-23T11:58:51.961Z,2840
2018-12-23T12:00:02.206Z,3232
2018-12-23T12:01:12.488Z,2892
2018-12-23T12:02:22.601Z,3076
2018-12-23T12:03:32.436Z,2812
2018-12-23T12:04:42.549Z,3192
2018-12-23T12:05:52.780Z,2896
2018-12-23T12:07:05.455Z,3356
2018-12-23T12:08:15.563Z,3376
2018-12-23T12:09:25.925Z,3296
2018-12-23T12:10:36.028Z,3232
2018-12-23T12:11:46.250Z,3208
2018-12-23T12:12:56.419Z,2988
2018-12-23T12:14:06.627Z,2788
2018-12-23T12:15:16.740Z,2956
2018-12-23T12:16:26.829Z,3152
2018-12-23T12:17:37.007Z,3076
2018-12-23T12:18:47.172Z,2980
2018-12-23T12:19:57.263Z,3036
2018-12-23T12:21:08.307Z,3040
2018-12-23T12:22:18.425Z,3012
2018-12-23T12:23:28.664Z,2912
2018-12-23T12:24:38.814Z,2632
2018-12-23T12:25:48.925Z,2916
2018-12-23T12:26:59.011Z,2984
2018-12-23T12:28:09.118Z,2892
2018-12-23T12:29:19.219Z,2564
2018-12-23T12:30:29.392Z,2776
2018-12-23T12:31:39.240Z,2784
2018-12-23T12:32:49.323Z,2616
2018-12-23T12:33:59.395Z,2576
2018-12-23T12:35:09.271Z,2472
2018-12-23T12:36:19.389Z,2408
2018-12-23T12:37:29.483Z,2364
2018-12-23T12:38:39.644Z,2276
2018-12-23T12:39:49.747Z,2252
2018-12-23T12:40:59.639Z,2172
2018-12-23T12:42:10.327Z,2148
2018-12-23T12:43:20.438Z,2144
2018-12-23T12:44:30.500Z,2172
2018-12-23T12:45:40.628Z,2244
2018-12-23T12:46:50.994Z,2232
2018-12-23T12:48:02.632Z,2208
2018-12-23T12:49:12.458Z,2196
2018-12-23T12:50:22.543Z,2168
2018-12-23T12:51:32.146Z,2176
2018-12-23T12:52:42.259Z,2156
2018-12-23T12:53:52.092Z,2124
2018-12-23T12:55:02.245Z,2092
2018-12-23T12:56:12.354Z,2056
2018-12-23T12:57:22.432Z,2048
2018-12-23T12:58:32.294Z,2064
2018-12-23T12:59:42.407Z,2056
2018-12-23T13:00:52.498Z,2048
2018-12-23T13:02:02.780Z,2028
2018-12-23T13:03:12.858Z,2000
2018-12-23T13:04:23.039Z,1968
2018-12-23T13:05:33.208Z,1940
2018-12-23T13:06:43.692Z,1904
2018-12-23T13:07:53.527Z,1836
2018-12-23T13:09:08.077Z,1768
2018-12-23T13:10:18.195Z,1720
2018-12-23T13:11:28.292Z,1708
2018-12-23T13:12:38.372Z,1708
2018-12-23T13:13:48.455Z,1696
2018-12-23T13:14:58.568Z,1688
2018-12-23T13:16:08.684Z,1684
2018-12-23T13:17:18.772Z,1664
2018-12-23T13:18:28.835Z,1644
2018-12-23T13:19:38.932Z,1600
2018-12-23T13:20:49.017Z,1560
2018-12-23T13:21:58.642Z,1520
2018-12-23T13:23:08.722Z,1472
2018-12-23T13:24:18.853Z,1408
2018-12-23T13:25:28.951Z,1360
2018-12-23T13:26:39.053Z,1336
2018-12-23T13:27:48.887Z,1308
2018-12-23T13:28:58.990Z,1268
2018-12-23T13:30:10.338Z,1220
2018-12-23T13:31:20.143Z,1180
2018-12-23T13:32:30.212Z,1148
2018-12-23T13:33:40.150Z,1132
2018-12-23T13:34:50.224Z,1100
2018-12-23T13:36:00.679Z,1040
2018-12-23T13:37:10.767Z,980
2018-12-23T13:38:20.570Z,928
2018-12-23T13:39:30.462Z,900
2018-12-23T13:40:40.286Z,892
2018-12-23T13:41:50.241Z,888
2018-12-23T13:43:00.322Z,884
2018-12-23T13:44:10.437Z,884
2018-12-23T13:45:20.505Z,864
2018-12-23T13:46:30.338Z,816
2018-12-23T13:47:40.624Z,748
2018-12-23T13:48:50.715Z,664
2018-12-23T13:50:00.799Z,576
2018-12-23T13:51:10.618Z,492
2018-12-23T13:52:20.916Z,444
2018-12-23T13:53:30.883Z,444
2018-12-23T13:54:40.961Z,448
2018-12-23T13:55:50.789Z,444
2018-12-23T13:57:00.643Z,452
2018-12-23T13:58:10.509Z,452
2018-12-23T13:59:20.590Z,448
2018-12-23T14:00:30.694Z,452
2018-12-23T14:01:40.522Z,444
2018-12-23T14:02:50.607Z,424
2018-12-23T14:04:03.426Z,400
2018-12-23T14:05:13.263Z,388
2018-12-23T14:06:23.477Z,380
2018-12-23T14:07:33.606Z,368
2018-12-23T14:08:43.680Z,340
2018-12-23T14:09:53.773Z,320
2018-12-23T14:11:03.887Z,308
2018-12-23T14:12:13.992Z,292
2018-12-23T14:13:24.091Z,272
2018-12-23T14:14:33.971Z,256
2018-12-23T14:15:44.162Z,240
2018-12-23T14:16:54.256Z,232
2018-12-23T14:18:04.340Z,232
2018-12-23T14:19:14.160Z,220
2018-12-23T14:20:24.289Z,212
2018-12-23T14:21:34.391Z,208
2018-12-23T14:22:44.227Z,208
2018-12-23T14:23:54.402Z,200
2018-12-23T14:25:04.531Z,188
2018-12-23T14:26:14.625Z,168
2018-12-23T14:27:24.721Z,172
2018-12-23T14:28:35.399Z,180
2018-12-23T14:29:45.492Z,192
2018-12-23T14:30:55.295Z,200
2018-12-23T14:32:05.564Z,196
2018-12-23T14:33:15.614Z,188
2018-12-23T14:34:25.519Z,164
2018-12-23T14:35:37.023Z,140
2018-12-23T14:36:47.156Z,112
2018-12-23T14:37:57.303Z,96
2018-12-23T14:39:07.559Z,88
2018-12-23T14:40:17.675Z,84
2018-12-23T14:41:27.789Z,80
2018-12-23T14:42:37.886Z,76
2018-12-23T14:43:48.051Z,72
2018-12-23T14:44:58.141Z,72
2018-12-23T14:46:08.251Z,72
2018-12-23T14:47:18.429Z,68
2018-12-23T14:48:28.515Z,56
2018-12-23T14:49:38.665Z,52
2018-12-23T14:50:49.068Z,40
2018-12-23T14:51:58.896Z,32
2018-12-23T14:53:09.880Z,28
2018-12-23T14:54:19.447Z,28
2018-12-23T14:55:29.324Z,28
2018-12-23T14:56:39.396Z,28
2018-12-23T14:57:49.464Z,28
2018-12-23T14:58:59.536Z,24
2018-12-23T15:00:10.235Z,28
2018-12-23T15:01:20.447Z,24
2018-12-23T15:02:30.514Z,24
2018-12-23T15:03:40.579Z,20
2018-12-23T15:04:50.665Z,16
2018-12-23T15:06:03.222Z,12
2018-12-23T15:07:13.494Z,16
2018-12-23T15:08:23.591Z,12
2018-12-23T15:09:41.434Z,8
2018-12-23T15:10:51.587Z,8
2018-12-23T15:12:01.592Z,8
2018-12-23T15:13:11.526Z,8
2018-12-23T15:14:21.635Z,4
2018-12-23T15:15:31.734Z,4
2018-12-23T15:16:41.580Z,4
2018-12-23T15:17:51.687Z,4
2018-12-23T15:19:02.991Z,4
2018-12-23T15:20:13.104Z,4
2018-12-23T15:21:23.186Z,4
2018-12-23T15:22:33.285Z,4
2018-12-23T15:23:43.414Z,4
2018-12-23T15:24:53.551Z,0
2018-12-23T15:26:03.656Z,0
2018-12-23T15:27:13.487Z,0
2018-12-23T15:28:23.322Z,0
2018-12-23T15:29:33.128Z,0
2018-12-23T15:30:43.245Z,0
2018-12-23T15:31:53.312Z,0
2018-12-23T15:33:03.390Z,0
2018-12-23T15:34:13.509Z,0
2018-12-23T15:35:23.603Z,0
2018-12-23T15:36:33.882Z,0
2018-12-23T15:37:43.526Z,0
2018-12-23T15:38:53.606Z,0
2018-12-23T15:40:04.770Z,0
2018-12-23T15:41:14.593Z,0
2018-12-23T15:42:24.672Z,0
2018-12-23T15:43:34.506Z,0
2018-12-23T15:44:44.642Z,0
2018-12-23T15:45:54.715Z,0
2018-12-23T15:47:04.819Z,0
2018-12-23T15:48:14.907Z,0
2018-12-23T15:49:24.737Z,0
2018-12-23T15:50:34.786Z,0
2018-12-23T15:51:44.885Z,0
2018-12-23T15:52:54.972Z,0
2018-12-23T15:54:05.451Z,0
2018-12-23T15:55:15.564Z,0
2018-12-23T15:56:25.677Z,0
2018-12-23T15:57:35.516Z,0
2018-12-23T15:58:45.600Z,0
2018-12-23T15:59:55.734Z,0
2018-12-23T16:01:05.973Z,0
2018-12-23T16:02:16.252Z,0
2018-12-23T16:03:26.328Z,0
2018-12-23T16:04:36.462Z,0
2018-12-23T16:05:46.627Z,0
2018-12-23T16:06:55.946Z,0
2018-12-23T16:08:05.821Z,0
2018-12-23T16:09:15.924Z,0
2018-12-23T16:10:26.008Z,0
2018-12-23T16:11:35.894Z,0
2018-12-23T16:12:45.992Z,0
2018-12-23T16:13:56.128Z,0
2018-12-23T16:15:07.965Z,0
2018-12-23T16:16:18.289Z,0
2018-12-23T16:17:28.363Z,0
2018-12-23T16:18:38.272Z,0
2018-12-23T16:19:48.446Z,0
2018-12-23T16:20:58.531Z,0
2018-12-23T16:22:08.606Z,0
2018-12-23T16:23:18.477Z,0
2018-12-23T16:24:28.536Z,0
2018-12-23T16:25:38.631Z,0
2018-12-23T16:26:48.717Z,0
2018-12-23T16:27:59.054Z,0
2018-12-23T16:29:11.799Z,0
2018-12-23T16:30:22.729Z,0
2018-12-23T16:31:32.899Z,0
2018-12-23T16:32:42.967Z,0
2018-12-23T16:33:53.049Z,0
2018-12-23T16:35:03.176Z,0
2018-12-23T16:36:13.273Z,0
2018-12-23T16:37:23.089Z,0
2018-12-23T16:38:33.198Z,0
2018-12-23T16:39:43.278Z,0
2018-12-23T16:40:53.376Z,0
2018-12-23T16:42:03.462Z,0
2018-12-23T16:43:13.578Z,0
2018-12-23T16:44:23.654Z,0
2018-12-23T16:45:33.219Z,0
2018-12-23T16:46:43.300Z,0
2018-12-23T16:47:53.390Z,0
2018-12-23T16:49:05.624Z,0
2018-12-23T16:50:15.729Z,0
2018-12-23T16:51:25.820Z,0
2018-12-23T16:52:35.706Z,0
2018-12-23T16:53:45.568Z,0
2018-12-23T16:54:55.640Z,0
2018-12-23T16:56:05.764Z,0
2018-12-23T16:57:15.324Z,0
2018-12-23T16:58:25.466Z,0
2018-12-23T16:59:35.601Z,0